sensor_id;sensor_type;location;lat;lon;timestamp;P1;durP1;ratioP1;P2;durP2;ratioP2
6590;SDS011;3331;47.978;7.662;2022-10-26T00:01:55;2.10;;;1.90;;
6590;SDS011;3331;47.978;7.662;2022-10-26T00:04:23;8.17;;;1.60;;
6590;SDS011;3331;47.978;7.662;2022-10-26T00:06:50;1.50;;;1.40;;
6590;SDS011;3331;47.978;7.662;2022-10-26T00:09:16;1.97;;;1.40;;
6590;SDS011;3331;47.978;7.662;2022-10-26T00:11:43;2.17;;;1.53;;
6590;SDS011;3331;47.978;7.662;2022-10-26T00:14:09;1.87;;;1.63;;
6590;SDS011;3331;47.978;7.662;2022-10-26T00:16:35;3.60;;;1.40;;
6590;SDS011;3331;47.978;7.662;2022-10-26T00:19:02;2.23;;;1.50;;
6590;SDS011;3331;47.978;7.662;2022-10-26T00:21:29;2.67;;;1.33;;
6590;SDS011;3331;47.978;7.662;2022-10-26T00:23:57;2.40;;;1.47;;
6590;SDS011;3331;47.978;7.662;2022-10-26T00:26:23;5.47;;;1.60;;
6590;SDS011;3331;47.978;7.662;2022-10-26T00:28:51;3.33;;;1.50;;
6590;SDS011;3331;47.978;7.662;2022-10-26T00:31:17;2.10;;;1.27;;
6590;SDS011;3331;47.978;7.662;2022-10-26T00:33:44;1.93;;;1.30;;
6590;SDS011;3331;47.978;7.662;2022-10-26T00:36:10;2.47;;;1.60;;
6590;SDS011;3331;47.978;7.662;2022-10-26T00:38:42;4.50;;;1.27;;
6590;SDS011;3331;47.978;7.662;2022-10-26T00:41:11;2.90;;;1.40;;
6590;SDS011;3331;47.978;7.662;2022-10-26T00:43:38;2.13;;;1.60;;
6590;SDS011;3331;47.978;7.662;2022-10-26T00:46:06;1.77;;;1.30;;
6590;SDS011;3331;47.978;7.662;2022-10-26T00:48:33;1.70;;;1.60;;
6590;SDS011;3331;47.978;7.662;2022-10-26T00:51:03;3.90;;;1.50;;
6590;SDS011;3331;47.978;7.662;2022-10-26T00:53:31;4.90;;;1.50;;
6590;SDS011;3331;47.978;7.662;2022-10-26T00:55:59;1.73;;;1.50;;
6590;SDS011;3331;47.978;7.662;2022-10-26T00:58:27;2.23;;;1.53;;
6590;SDS011;3331;47.978;7.662;2022-10-26T01:00:54;4.30;;;1.73;;
6590;SDS011;3331;47.978;7.662;2022-10-26T01:03:21;2.40;;;1.50;;
6590;SDS011;3331;47.978;7.662;2022-10-26T01:05:49;3.07;;;1.60;;
6590;SDS011;3331;47.978;7.662;2022-10-26T01:08:17;7.43;;;2.17;;
6590;SDS011;3331;47.978;7.662;2022-10-26T01:10:44;3.20;;;1.20;;
6590;SDS011;3331;47.978;7.662;2022-10-26T01:13:12;1.80;;;1.20;;
6590;SDS011;3331;47.978;7.662;2022-10-26T01:15:41;3.43;;;1.70;;
6590;SDS011;3331;47.978;7.662;2022-10-26T01:18:10;4.17;;;1.73;;
6590;SDS011;3331;47.978;7.662;2022-10-26T01:20:42;2.07;;;1.60;;
6590;SDS011;3331;47.978;7.662;2022-10-26T01:23:15;4.20;;;1.80;;
6590;SDS011;3331;47.978;7.662;2022-10-26T01:25:50;1.60;;;1.50;;
6590;SDS011;3331;47.978;7.662;2022-10-26T01:28:27;4.40;;;1.80;;
6590;SDS011;3331;47.978;7.662;2022-10-26T01:30:59;3.00;;;1.80;;
6590;SDS011;3331;47.978;7.662;2022-10-26T01:33:28;3.27;;;1.30;;
6590;SDS011;3331;47.978;7.662;2022-10-26T01:35:59;1.70;;;1.60;;
6590;SDS011;3331;47.978;7.662;2022-10-26T01:38:29;0.93;;;0.93;;
6590;SDS011;3331;47.978;7.662;2022-10-26T01:40:58;1.97;;;1.70;;
6590;SDS011;3331;47.978;7.662;2022-10-26T01:43:25;1.70;;;1.50;;
6590;SDS011;3331;47.978;7.662;2022-10-26T01:45:53;4.80;;;1.70;;
6590;SDS011;3331;47.978;7.662;2022-10-26T01:48:21;2.03;;;1.53;;
6590;SDS011;3331;47.978;7.662;2022-10-26T01:50:49;4.27;;;1.70;;
6590;SDS011;3331;47.978;7.662;2022-10-26T01:53:17;1.50;;;1.30;;
6590;SDS011;3331;47.978;7.662;2022-10-26T01:55:46;1.97;;;1.50;;
6590;SDS011;3331;47.978;7.662;2022-10-26T01:58:20;4.57;;;1.60;;
6590;SDS011;3331;47.978;7.662;2022-10-26T02:00:51;3.30;;;1.50;;
6590;SDS011;3331;47.978;7.662;2022-10-26T02:03:24;0.93;;;0.93;;
6590;SDS011;3331;47.978;7.662;2022-10-26T02:05:55;1.73;;;1.40;;
6590;SDS011;3331;47.978;7.662;2022-10-26T02:08:32;3.53;;;1.70;;
6590;SDS011;3331;47.978;7.662;2022-10-26T02:11:05;2.73;;;1.20;;
6590;SDS011;3331;47.978;7.662;2022-10-26T02:13:38;2.93;;;1.47;;
6590;SDS011;3331;47.978;7.662;2022-10-26T02:16:08;2.90;;;1.70;;
6590;SDS011;3331;47.978;7.662;2022-10-26T02:18:41;4.33;;;1.73;;
6590;SDS011;3331;47.978;7.662;2022-10-26T02:21:10;3.00;;;1.70;;
6590;SDS011;3331;47.978;7.662;2022-10-26T02:23:38;4.70;;;2.30;;
6590;SDS011;3331;47.978;7.662;2022-10-26T02:26:06;3.53;;;1.50;;
6590;SDS011;3331;47.978;7.662;2022-10-26T02:28:34;5.47;;;2.03;;
6590;SDS011;3331;47.978;7.662;2022-10-26T02:31:01;5.63;;;2.40;;
6590;SDS011;3331;47.978;7.662;2022-10-26T02:33:30;4.30;;;2.07;;
6590;SDS011;3331;47.978;7.662;2022-10-26T02:36:00;1.90;;;1.50;;
6590;SDS011;3331;47.978;7.662;2022-10-26T02:38:28;2.90;;;1.70;;
6590;SDS011;3331;47.978;7.662;2022-10-26T02:40:55;3.60;;;1.77;;
6590;SDS011;3331;47.978;7.662;2022-10-26T02:43:23;5.03;;;1.40;;
6590;SDS011;3331;47.978;7.662;2022-10-26T02:45:51;2.70;;;1.67;;
6590;SDS011;3331;47.978;7.662;2022-10-26T02:48:19;2.70;;;1.80;;
6590;SDS011;3331;47.978;7.662;2022-10-26T02:50:48;2.47;;;1.80;;
6590;SDS011;3331;47.978;7.662;2022-10-26T02:53:21;2.03;;;1.70;;
6590;SDS011;3331;47.978;7.662;2022-10-26T02:55:49;2.70;;;1.53;;
6590;SDS011;3331;47.978;7.662;2022-10-26T02:58:17;2.47;;;1.70;;
6590;SDS011;3331;47.978;7.662;2022-10-26T03:00:45;4.20;;;1.57;;
6590;SDS011;3331;47.978;7.662;2022-10-26T03:03:11;2.80;;;1.73;;
6590;SDS011;3331;47.978;7.662;2022-10-26T03:05:40;2.20;;;1.70;;
6590;SDS011;3331;47.978;7.662;2022-10-26T03:08:06;3.07;;;1.53;;
6590;SDS011;3331;47.978;7.662;2022-10-26T03:10:34;2.20;;;1.37;;
6590;SDS011;3331;47.978;7.662;2022-10-26T03:13:05;4.10;;;1.60;;
6590;SDS011;3331;47.978;7.662;2022-10-26T03:15:31;6.33;;;1.67;;
6590;SDS011;3331;47.978;7.662;2022-10-26T03:17:57;6.60;;;1.50;;
6590;SDS011;3331;47.978;7.662;2022-10-26T03:20:24;1.37;;;1.20;;
6590;SDS011;3331;47.978;7.662;2022-10-26T03:22:51;2.63;;;1.63;;
6590;SDS011;3331;47.978;7.662;2022-10-26T03:25:17;4.53;;;1.57;;
6590;SDS011;3331;47.978;7.662;2022-10-26T03:27:45;6.93;;;1.53;;
6590;SDS011;3331;47.978;7.662;2022-10-26T03:30:11;2.40;;;1.10;;
6590;SDS011;3331;47.978;7.662;2022-10-26T03:32:38;4.83;;;1.70;;
6590;SDS011;3331;47.978;7.662;2022-10-26T03:35:04;11.03;;;1.47;;
6590;SDS011;3331;47.978;7.662;2022-10-26T03:37:30;1.33;;;1.10;;
6590;SDS011;3331;47.978;7.662;2022-10-26T03:39:57;2.33;;;1.30;;
6590;SDS011;3331;47.978;7.662;2022-10-26T03:42:23;2.50;;;1.10;;
6590;SDS011;3331;47.978;7.662;2022-10-26T03:44:51;1.97;;;1.33;;
6590;SDS011;3331;47.978;7.662;2022-10-26T03:47:17;4.17;;;1.10;;
6590;SDS011;3331;47.978;7.662;2022-10-26T03:49:43;2.47;;;1.50;;
6590;SDS011;3331;47.978;7.662;2022-10-26T03:52:10;4.13;;;1.47;;
6590;SDS011;3331;47.978;7.662;2022-10-26T03:54:36;1.90;;;1.20;;
6590;SDS011;3331;47.978;7.662;2022-10-26T03:57:03;3.03;;;1.50;;
6590;SDS011;3331;47.978;7.662;2022-10-26T03:59:29;2.67;;;1.30;;
6590;SDS011;3331;47.978;7.662;2022-10-26T04:01:57;2.00;;;1.20;;
6590;SDS011;3331;47.978;7.662;2022-10-26T04:04:23;3.00;;;1.50;;
6590;SDS011;3331;47.978;7.662;2022-10-26T04:06:50;5.57;;;1.77;;
6590;SDS011;3331;47.978;7.662;2022-10-26T04:09:16;1.37;;;1.27;;
6590;SDS011;3331;47.978;7.662;2022-10-26T04:11:42;2.03;;;1.30;;
6590;SDS011;3331;47.978;7.662;2022-10-26T04:14:09;2.30;;;1.30;;
6590;SDS011;3331;47.978;7.662;2022-10-26T04:16:35;3.70;;;1.50;;
6590;SDS011;3331;47.978;7.662;2022-10-26T04:19:03;2.90;;;1.50;;
6590;SDS011;3331;47.978;7.662;2022-10-26T04:21:30;2.00;;;1.37;;
6590;SDS011;3331;47.978;7.662;2022-10-26T04:23:57;2.67;;;1.30;;
6590;SDS011;3331;47.978;7.662;2022-10-26T04:26:23;8.53;;;1.80;;
6590;SDS011;3331;47.978;7.662;2022-10-26T04:28:50;2.73;;;1.50;;
6590;SDS011;3331;47.978;7.662;2022-10-26T04:31:16;2.33;;;1.40;;
6590;SDS011;3331;47.978;7.662;2022-10-26T04:33:43;6.63;;;3.27;;
6590;SDS011;3331;47.978;7.662;2022-10-26T04:36:10;13.77;;;6.40;;
6590;SDS011;3331;47.978;7.662;2022-10-26T04:38:37;23.27;;;12.43;;
6590;SDS011;3331;47.978;7.662;2022-10-26T04:41:03;19.10;;;11.10;;
6590;SDS011;3331;47.978;7.662;2022-10-26T04:43:30;11.67;;;6.33;;
6590;SDS011;3331;47.978;7.662;2022-10-26T04:45:56;5.30;;;2.80;;
6590;SDS011;3331;47.978;7.662;2022-10-26T04:48:23;5.20;;;2.20;;
6590;SDS011;3331;47.978;7.662;2022-10-26T04:50:49;6.73;;;2.23;;
6590;SDS011;3331;47.978;7.662;2022-10-26T04:53:17;5.63;;;2.17;;
6590;SDS011;3331;47.978;7.662;2022-10-26T04:55:43;2.53;;;1.60;;
6590;SDS011;3331;47.978;7.662;2022-10-26T04:58:10;2.73;;;1.90;;
6590;SDS011;3331;47.978;7.662;2022-10-26T05:00:36;3.63;;;1.50;;
6590;SDS011;3331;47.978;7.662;2022-10-26T05:03:03;3.67;;;1.50;;
6590;SDS011;3331;47.978;7.662;2022-10-26T05:05:30;6.30;;;1.87;;
6590;SDS011;3331;47.978;7.662;2022-10-26T05:07:57;2.83;;;2.10;;
6590;SDS011;3331;47.978;7.662;2022-10-26T05:10:25;1.97;;;1.83;;
6590;SDS011;3331;47.978;7.662;2022-10-26T05:12:52;3.87;;;1.93;;
6590;SDS011;3331;47.978;7.662;2022-10-26T05:15:18;6.10;;;1.70;;
6590;SDS011;3331;47.978;7.662;2022-10-26T05:17:45;2.80;;;2.07;;
6590;SDS011;3331;47.978;7.662;2022-10-26T05:20:11;2.37;;;1.60;;
6590;SDS011;3331;47.978;7.662;2022-10-26T05:22:38;2.47;;;2.00;;
6590;SDS011;3331;47.978;7.662;2022-10-26T05:25:05;8.13;;;2.30;;
6590;SDS011;3331;47.978;7.662;2022-10-26T05:27:33;3.60;;;2.67;;
6590;SDS011;3331;47.978;7.662;2022-10-26T05:29:59;5.80;;;3.37;;
6590;SDS011;3331;47.978;7.662;2022-10-26T05:32:25;12.07;;;8.47;;
6590;SDS011;3331;47.978;7.662;2022-10-26T05:34:52;7.27;;;5.70;;
6590;SDS011;3331;47.978;7.662;2022-10-26T05:37:18;3.67;;;2.90;;
6590;SDS011;3331;47.978;7.662;2022-10-26T05:39:45;8.73;;;5.03;;
6590;SDS011;3331;47.978;7.662;2022-10-26T05:42:11;6.57;;;4.17;;
6590;SDS011;3331;47.978;7.662;2022-10-26T05:44:39;8.33;;;4.80;;
6590;SDS011;3331;47.978;7.662;2022-10-26T05:47:05;10.67;;;5.00;;
6590;SDS011;3331;47.978;7.662;2022-10-26T05:49:31;13.60;;;6.13;;
6590;SDS011;3331;47.978;7.662;2022-10-26T05:51:58;11.00;;;5.00;;
6590;SDS011;3331;47.978;7.662;2022-10-26T05:54:24;14.10;;;4.23;;
6590;SDS011;3331;47.978;7.662;2022-10-26T05:56:51;9.37;;;3.40;;
6590;SDS011;3331;47.978;7.662;2022-10-26T05:59:17;6.30;;;4.60;;
6590;SDS011;3331;47.978;7.662;2022-10-26T06:01:52;5.93;;;3.70;;
6590;SDS011;3331;47.978;7.662;2022-10-26T06:04:25;8.07;;;3.20;;
6590;SDS011;3331;47.978;7.662;2022-10-26T06:06:54;5.30;;;3.30;;
6590;SDS011;3331;47.978;7.662;2022-10-26T13:34:02;9.63;;;2.70;;
6590;SDS011;3331;47.978;7.662;2022-10-26T13:36:30;11.20;;;2.87;;
6590;SDS011;3331;47.978;7.662;2022-10-26T13:38:58;10.07;;;3.10;;
6590;SDS011;3331;47.978;7.662;2022-10-26T13:41:28;8.43;;;2.90;;
6590;SDS011;3331;47.978;7.662;2022-10-26T13:43:55;12.30;;;3.17;;
6590;SDS011;3331;47.978;7.662;2022-10-26T13:46:26;7.13;;;2.70;;
6590;SDS011;3331;47.978;7.662;2022-10-26T13:48:53;8.67;;;2.83;;
6590;SDS011;3331;47.978;7.662;2022-10-26T13:51:22;5.87;;;2.30;;
6590;SDS011;3331;47.978;7.662;2022-10-26T13:53:50;6.37;;;2.93;;
6590;SDS011;3331;47.978;7.662;2022-10-26T13:56:21;7.87;;;2.77;;
6590;SDS011;3331;47.978;7.662;2022-10-26T13:58:51;10.50;;;2.60;;
6590;SDS011;3331;47.978;7.662;2022-10-26T14:01:20;10.27;;;3.13;;
6590;SDS011;3331;47.978;7.662;2022-10-26T14:03:47;7.80;;;2.27;;
6590;SDS011;3331;47.978;7.662;2022-10-26T14:06:14;7.53;;;2.77;;
6590;SDS011;3331;47.978;7.662;2022-10-26T14:08:43;2.57;;;2.17;;
6590;SDS011;3331;47.978;7.662;2022-10-26T14:11:11;11.27;;;3.00;;
6590;SDS011;3331;47.978;7.662;2022-10-26T14:13:39;8.43;;;2.50;;
6590;SDS011;3331;47.978;7.662;2022-10-26T14:16:06;8.97;;;2.77;;
6590;SDS011;3331;47.978;7.662;2022-10-26T14:18:33;4.07;;;2.30;;
6590;SDS011;3331;47.978;7.662;2022-10-26T14:21:01;7.03;;;2.60;;
6590;SDS011;3331;47.978;7.662;2022-10-26T14:23:31;10.77;;;3.40;;
6590;SDS011;3331;47.978;7.662;2022-10-26T14:25:59;6.50;;;2.60;;
6590;SDS011;3331;47.978;7.662;2022-10-26T14:28:27;9.10;;;2.97;;
6590;SDS011;3331;47.978;7.662;2022-10-26T14:30:53;7.10;;;2.17;;
6590;SDS011;3331;47.978;7.662;2022-10-26T14:33:35;9.10;;;2.40;;
6590;SDS011;3331;47.978;7.662;2022-10-26T14:36:01;7.63;;;2.80;;
6590;SDS011;3331;47.978;7.662;2022-10-26T14:38:28;10.63;;;2.80;;
6590;SDS011;3331;47.978;7.662;2022-10-26T14:40:57;6.53;;;2.53;;
6590;SDS011;3331;47.978;7.662;2022-10-26T14:43:25;7.23;;;2.60;;
6590;SDS011;3331;47.978;7.662;2022-10-26T14:45:52;7.77;;;2.20;;
6590;SDS011;3331;47.978;7.662;2022-10-26T14:48:20;12.17;;;3.17;;
6590;SDS011;3331;47.978;7.662;2022-10-26T14:50:57;8.10;;;2.73;;
6590;SDS011;3331;47.978;7.662;2022-10-26T14:53:25;8.43;;;2.53;;
6590;SDS011;3331;47.978;7.662;2022-10-26T14:55:54;8.37;;;2.43;;
6590;SDS011;3331;47.978;7.662;2022-10-26T14:58:21;8.20;;;2.53;;
6590;SDS011;3331;47.978;7.662;2022-10-26T15:03:32;9.43;;;3.37;;
6590;SDS011;3331;47.978;7.662;2022-10-26T15:05:59;7.97;;;2.50;;
6590;SDS011;3331;47.978;7.662;2022-10-26T15:08:45;8.63;;;2.63;;
6590;SDS011;3331;47.978;7.662;2022-10-26T15:11:13;10.80;;;2.70;;
6590;SDS011;3331;47.978;7.662;2022-10-26T15:13:39;6.97;;;2.23;;
6590;SDS011;3331;47.978;7.662;2022-10-26T15:16:07;8.93;;;2.23;;
6590;SDS011;3331;47.978;7.662;2022-10-26T15:18:36;5.23;;;2.27;;
6590;SDS011;3331;47.978;7.662;2022-10-26T15:21:03;5.23;;;2.30;;
6590;SDS011;3331;47.978;7.662;2022-10-26T15:23:32;8.63;;;2.53;;
6590;SDS011;3331;47.978;7.662;2022-10-26T15:26:03;5.80;;;2.20;;
6590;SDS011;3331;47.978;7.662;2022-10-26T15:28:30;3.87;;;1.93;;
6590;SDS011;3331;47.978;7.662;2022-10-26T15:30:58;7.40;;;2.40;;
6590;SDS011;3331;47.978;7.662;2022-10-26T15:33:25;3.20;;;2.23;;
6590;SDS011;3331;47.978;7.662;2022-10-26T15:36:03;11.83;;;2.77;;
6590;SDS011;3331;47.978;7.662;2022-10-26T15:38:32;5.13;;;2.40;;
6590;SDS011;3331;47.978;7.662;2022-10-26T15:40:58;14.03;;;2.73;;
6590;SDS011;3331;47.978;7.662;2022-10-26T15:43:24;5.00;;;2.40;;
6590;SDS011;3331;47.978;7.662;2022-10-26T15:45:51;11.00;;;2.67;;
6590;SDS011;3331;47.978;7.662;2022-10-26T15:48:22;9.10;;;2.57;;
6590;SDS011;3331;47.978;7.662;2022-10-26T15:50:49;6.33;;;2.77;;
6590;SDS011;3331;47.978;7.662;2022-10-26T15:53:19;7.50;;;2.40;;
6590;SDS011;3331;47.978;7.662;2022-10-26T15:55:46;2.90;;;2.27;;
6590;SDS011;3331;47.978;7.662;2022-10-26T15:58:12;6.03;;;2.47;;
6590;SDS011;3331;47.978;7.662;2022-10-26T16:00:39;6.80;;;2.67;;
6590;SDS011;3331;47.978;7.662;2022-10-26T16:03:07;5.37;;;2.20;;
6590;SDS011;3331;47.978;7.662;2022-10-26T16:05:34;7.17;;;3.40;;
6590;SDS011;3331;47.978;7.662;2022-10-26T16:08:01;5.60;;;3.03;;
6590;SDS011;3331;47.978;7.662;2022-10-26T16:10:29;4.43;;;2.77;;
6590;SDS011;3331;47.978;7.662;2022-10-26T16:12:55;6.47;;;2.77;;
6590;SDS011;3331;47.978;7.662;2022-10-26T16:15:23;16.47;;;4.07;;
6590;SDS011;3331;47.978;7.662;2022-10-26T16:17:50;49.53;;;12.27;;
6590;SDS011;3331;47.978;7.662;2022-10-26T16:20:19;22.23;;;6.07;;
6590;SDS011;3331;47.978;7.662;2022-10-26T16:22:47;9.57;;;3.17;;
6590;SDS011;3331;47.978;7.662;2022-10-26T16:25:14;9.63;;;4.07;;
6590;SDS011;3331;47.978;7.662;2022-10-26T16:27:43;10.90;;;4.50;;
6590;SDS011;3331;47.978;7.662;2022-10-26T16:30:10;6.70;;;3.10;;
6590;SDS011;3331;47.978;7.662;2022-10-26T16:32:37;3.37;;;2.20;;
6590;SDS011;3331;47.978;7.662;2022-10-26T16:35:04;11.53;;;4.30;;
6590;SDS011;3331;47.978;7.662;2022-10-26T16:37:31;4.57;;;2.50;;
6590;SDS011;3331;47.978;7.662;2022-10-26T16:39:57;6.37;;;3.40;;
6590;SDS011;3331;47.978;7.662;2022-10-26T16:42:24;6.00;;;3.07;;
6590;SDS011;3331;47.978;7.662;2022-10-26T16:44:53;4.80;;;2.50;;
6590;SDS011;3331;47.978;7.662;2022-10-26T16:47:20;4.77;;;2.60;;
6590;SDS011;3331;47.978;7.662;2022-10-26T16:49:46;4.07;;;2.43;;
6590;SDS011;3331;47.978;7.662;2022-10-26T16:52:12;2.97;;;2.10;;
6590;SDS011;3331;47.978;7.662;2022-10-26T16:54:39;2.30;;;1.83;;
6590;SDS011;3331;47.978;7.662;2022-10-26T16:57:06;5.17;;;2.30;;
6590;SDS011;3331;47.978;7.662;2022-10-26T16:59:32;6.50;;;3.23;;
6590;SDS011;3331;47.978;7.662;2022-10-26T17:02:00;7.00;;;2.90;;
6590;SDS011;3331;47.978;7.662;2022-10-26T17:04:26;6.43;;;2.70;;
6590;SDS011;3331;47.978;7.662;2022-10-26T17:06:52;8.07;;;2.63;;
6590;SDS011;3331;47.978;7.662;2022-10-26T17:09:19;6.97;;;3.53;;
6590;SDS011;3331;47.978;7.662;2022-10-26T17:11:45;6.10;;;2.77;;
6590;SDS011;3331;47.978;7.662;2022-10-26T17:14:12;4.87;;;2.30;;
6590;SDS011;3331;47.978;7.662;2022-10-26T17:16:38;13.30;;;6.33;;
6590;SDS011;3331;47.978;7.662;2022-10-26T17:19:06;9.10;;;4.03;;
6590;SDS011;3331;47.978;7.662;2022-10-26T17:21:33;10.60;;;5.20;;
6590;SDS011;3331;47.978;7.662;2022-10-26T17:23:59;6.13;;;3.20;;
6590;SDS011;3331;47.978;7.662;2022-10-26T17:26:26;4.37;;;2.83;;
6590;SDS011;3331;47.978;7.662;2022-10-26T17:28:53;6.83;;;2.93;;
6590;SDS011;3331;47.978;7.662;2022-10-26T17:31:20;7.57;;;3.57;;
6590;SDS011;3331;47.978;7.662;2022-10-26T17:33:47;8.27;;;3.43;;
6590;SDS011;3331;47.978;7.662;2022-10-26T17:36:16;11.73;;;4.33;;
6590;SDS011;3331;47.978;7.662;2022-10-26T17:38:44;7.10;;;2.73;;
6590;SDS011;3331;47.978;7.662;2022-10-26T17:41:12;2.60;;;2.07;;
6590;SDS011;3331;47.978;7.662;2022-10-26T17:43:39;4.97;;;2.77;;
6590;SDS011;3331;47.978;7.662;2022-10-26T17:46:06;6.90;;;2.63;;
6590;SDS011;3331;47.978;7.662;2022-10-26T17:48:32;4.53;;;2.40;;
6590;SDS011;3331;47.978;7.662;2022-10-26T17:50:59;7.57;;;4.60;;
6590;SDS011;3331;47.978;7.662;2022-10-26T17:53:27;17.27;;;10.73;;
6590;SDS011;3331;47.978;7.662;2022-10-26T17:55:59;15.77;;;7.43;;
6590;SDS011;3331;47.978;7.662;2022-10-26T17:58:26;6.40;;;3.27;;
6590;SDS011;3331;47.978;7.662;2022-10-26T18:00:53;4.70;;;3.53;;
6590;SDS011;3331;47.978;7.662;2022-10-26T18:03:19;6.60;;;4.13;;
6590;SDS011;3331;47.978;7.662;2022-10-26T18:05:47;8.30;;;4.17;;
6590;SDS011;3331;47.978;7.662;2022-10-26T18:08:13;7.13;;;4.10;;
6590;SDS011;3331;47.978;7.662;2022-10-26T18:10:46;7.83;;;5.10;;
6590;SDS011;3331;47.978;7.662;2022-10-26T18:13:12;12.53;;;3.33;;
6590;SDS011;3331;47.978;7.662;2022-10-26T18:15:39;6.87;;;3.33;;
6590;SDS011;3331;47.978;7.662;2022-10-26T18:18:05;8.87;;;3.10;;
6590;SDS011;3331;47.978;7.662;2022-10-26T18:20:31;6.10;;;3.70;;
6590;SDS011;3331;47.978;7.662;2022-10-26T18:22:58;6.60;;;3.10;;
6590;SDS011;3331;47.978;7.662;2022-10-26T18:25:24;10.67;;;3.20;;
6590;SDS011;3331;47.978;7.662;2022-10-26T18:27:52;5.07;;;2.90;;
6590;SDS011;3331;47.978;7.662;2022-10-26T18:30:19;10.80;;;3.37;;
6590;SDS011;3331;47.978;7.662;2022-10-26T18:32:46;6.47;;;3.67;;
6590;SDS011;3331;47.978;7.662;2022-10-26T18:35:13;5.70;;;3.17;;
6590;SDS011;3331;47.978;7.662;2022-10-26T18:37:39;6.50;;;3.00;;
6590;SDS011;3331;47.978;7.662;2022-10-26T18:40:06;6.53;;;3.60;;
6590;SDS011;3331;47.978;7.662;2022-10-26T18:42:32;9.43;;;3.83;;
6590;SDS011;3331;47.978;7.662;2022-10-26T18:45:00;6.57;;;3.93;;
6590;SDS011;3331;47.978;7.662;2022-10-26T18:47:28;4.40;;;2.97;;
6590;SDS011;3331;47.978;7.662;2022-10-26T18:49:54;7.17;;;2.80;;
6590;SDS011;3331;47.978;7.662;2022-10-26T18:52:20;9.23;;;3.20;;
6590;SDS011;3331;47.978;7.662;2022-10-26T18:54:47;9.33;;;3.00;;
6590;SDS011;3331;47.978;7.662;2022-10-26T18:57:14;7.23;;;2.83;;
6590;SDS011;3331;47.978;7.662;2022-10-26T18:59:40;7.20;;;2.93;;
6590;SDS011;3331;47.978;7.662;2022-10-26T19:02:08;7.63;;;3.13;;
6590;SDS011;3331;47.978;7.662;2022-10-26T19:04:38;13.37;;;3.47;;
6590;SDS011;3331;47.978;7.662;2022-10-26T19:07:04;6.07;;;3.40;;
6590;SDS011;3331;47.978;7.662;2022-10-26T19:09:31;10.47;;;3.10;;
6590;SDS011;3331;47.978;7.662;2022-10-26T19:11:57;9.57;;;4.13;;
6590;SDS011;3331;47.978;7.662;2022-10-26T19:14:23;6.57;;;3.00;;
6590;SDS011;3331;47.978;7.662;2022-10-26T19:16:50;6.50;;;3.43;;
6590;SDS011;3331;47.978;7.662;2022-10-26T19:19:18;6.80;;;3.03;;
6590;SDS011;3331;47.978;7.662;2022-10-26T19:21:45;6.80;;;2.87;;
6590;SDS011;3331;47.978;7.662;2022-10-26T19:24:12;4.93;;;2.90;;
6590;SDS011;3331;47.978;7.662;2022-10-26T19:26:39;13.47;;;2.77;;
6590;SDS011;3331;47.978;7.662;2022-10-26T19:29:06;12.20;;;3.63;;
6590;SDS011;3331;47.978;7.662;2022-10-26T19:31:32;14.43;;;3.17;;
6590;SDS011;3331;47.978;7.662;2022-10-26T19:33:59;6.83;;;3.17;;
6590;SDS011;3331;47.978;7.662;2022-10-26T19:36:27;11.33;;;3.27;;
6590;SDS011;3331;47.978;7.662;2022-10-26T19:38:54;8.37;;;3.20;;
6590;SDS011;3331;47.978;7.662;2022-10-26T19:41:21;4.93;;;2.90;;
6590;SDS011;3331;47.978;7.662;2022-10-26T19:43:48;9.03;;;3.23;;
6590;SDS011;3331;47.978;7.662;2022-10-26T19:46:15;9.30;;;3.33;;
6590;SDS011;3331;47.978;7.662;2022-10-26T19:48:41;12.73;;;3.10;;
6590;SDS011;3331;47.978;7.662;2022-10-26T19:51:23;5.50;;;3.00;;
6590;SDS011;3331;47.978;7.662;2022-10-26T19:53:51;8.87;;;3.97;;
6590;SDS011;3331;47.978;7.662;2022-10-26T19:56:17;9.17;;;3.27;;
6590;SDS011;3331;47.978;7.662;2022-10-26T19:58:44;12.00;;;3.17;;
6590;SDS011;3331;47.978;7.662;2022-10-26T20:01:12;8.77;;;3.13;;
6590;SDS011;3331;47.978;7.662;2022-10-26T20:03:39;14.87;;;3.57;;
6590;SDS011;3331;47.978;7.662;2022-10-26T20:06:06;8.73;;;2.77;;
6590;SDS011;3331;47.978;7.662;2022-10-26T20:08:36;14.97;;;3.60;;
6590;SDS011;3331;47.978;7.662;2022-10-26T20:11:05;7.47;;;3.00;;
6590;SDS011;3331;47.978;7.662;2022-10-26T20:13:32;9.33;;;3.03;;
6590;SDS011;3331;47.978;7.662;2022-10-26T20:15:58;16.70;;;5.67;;
6590;SDS011;3331;47.978;7.662;2022-10-26T20:18:24;13.73;;;5.17;;
6590;SDS011;3331;47.978;7.662;2022-10-26T20:20:51;13.53;;;4.40;;
6590;SDS011;3331;47.978;7.662;2022-10-26T20:23:17;9.50;;;4.30;;
6590;SDS011;3331;47.978;7.662;2022-10-26T20:25:44;10.23;;;3.60;;
6590;SDS011;3331;47.978;7.662;2022-10-26T20:28:12;8.70;;;3.53;;
6590;SDS011;3331;47.978;7.662;2022-10-26T20:30:39;8.47;;;3.27;;
6590;SDS011;3331;47.978;7.662;2022-10-26T20:33:06;9.90;;;3.87;;
6590;SDS011;3331;47.978;7.662;2022-10-26T20:35:32;7.60;;;3.47;;
6590;SDS011;3331;47.978;7.662;2022-10-26T20:37:59;7.73;;;3.67;;
6590;SDS011;3331;47.978;7.662;2022-10-26T20:40:26;12.83;;;4.27;;
6590;SDS011;3331;47.978;7.662;2022-10-26T20:42:53;11.50;;;4.77;;
6590;SDS011;3331;47.978;7.662;2022-10-26T20:45:22;12.70;;;4.23;;
6590;SDS011;3331;47.978;7.662;2022-10-26T20:47:50;12.13;;;3.90;;
6590;SDS011;3331;47.978;7.662;2022-10-26T20:50:18;12.57;;;3.20;;
6590;SDS011;3331;47.978;7.662;2022-10-26T20:52:46;8.97;;;3.57;;
6590;SDS011;3331;47.978;7.662;2022-10-26T20:55:14;7.40;;;2.77;;
6590;SDS011;3331;47.978;7.662;2022-10-26T20:57:44;9.80;;;3.07;;
6590;SDS011;3331;47.978;7.662;2022-10-26T21:00:14;10.60;;;3.10;;
6590;SDS011;3331;47.978;7.662;2022-10-26T21:02:42;8.73;;;3.30;;
6590;SDS011;3331;47.978;7.662;2022-10-26T21:05:09;9.90;;;3.60;;
6590;SDS011;3331;47.978;7.662;2022-10-26T21:07:35;12.03;;;3.40;;
6590;SDS011;3331;47.978;7.662;2022-10-26T21:10:01;5.17;;;2.77;;
6590;SDS011;3331;47.978;7.662;2022-10-26T21:12:28;14.67;;;2.87;;
6590;SDS011;3331;47.978;7.662;2022-10-26T21:14:54;7.93;;;3.00;;
6590;SDS011;3331;47.978;7.662;2022-10-26T21:17:20;5.10;;;3.00;;
6590;SDS011;3331;47.978;7.662;2022-10-26T21:19:48;8.83;;;3.10;;
6590;SDS011;3331;47.978;7.662;2022-10-26T21:22:15;7.70;;;2.50;;
6590;SDS011;3331;47.978;7.662;2022-10-26T21:24:41;6.63;;;3.47;;
6590;SDS011;3331;47.978;7.662;2022-10-26T21:27:07;4.57;;;2.60;;
6590;SDS011;3331;47.978;7.662;2022-10-26T21:29:34;9.63;;;3.40;;
6590;SDS011;3331;47.978;7.662;2022-10-26T21:32:00;6.70;;;2.50;;
6590;SDS011;3331;47.978;7.662;2022-10-26T21:34:26;6.23;;;3.10;;
6590;SDS011;3331;47.978;7.662;2022-10-26T21:36:54;5.40;;;2.67;;
6590;SDS011;3331;47.978;7.662;2022-10-26T21:39:20;8.63;;;3.47;;
6590;SDS011;3331;47.978;7.662;2022-10-26T21:41:47;5.30;;;3.40;;
6590;SDS011;3331;47.978;7.662;2022-10-26T21:44:13;5.53;;;3.17;;
6590;SDS011;3331;47.978;7.662;2022-10-26T21:46:40;5.57;;;3.00;;
6590;SDS011;3331;47.978;7.662;2022-10-26T21:49:06;11.93;;;3.80;;
6590;SDS011;3331;47.978;7.662;2022-10-26T21:51:32;4.10;;;2.90;;
6590;SDS011;3331;47.978;7.662;2022-10-26T21:54:01;3.90;;;3.10;;
6590;SDS011;3331;47.978;7.662;2022-10-26T21:56:27;7.27;;;3.20;;
6590;SDS011;3331;47.978;7.662;2022-10-26T21:58:54;4.47;;;2.83;;
6590;SDS011;3331;47.978;7.662;2022-10-26T22:01:20;4.80;;;2.90;;
6590;SDS011;3331;47.978;7.662;2022-10-26T22:03:47;6.23;;;2.50;;
6590;SDS011;3331;47.978;7.662;2022-10-26T22:06:14;8.20;;;3.00;;
6590;SDS011;3331;47.978;7.662;2022-10-26T22:08:41;8.03;;;3.00;;
6590;SDS011;3331;47.978;7.662;2022-10-26T22:11:10;9.10;;;2.93;;
6590;SDS011;3331;47.978;7.662;2022-10-26T22:13:37;6.07;;;2.50;;
6590;SDS011;3331;47.978;7.662;2022-10-26T22:16:04;4.23;;;2.33;;
6590;SDS011;3331;47.978;7.662;2022-10-26T22:18:33;4.57;;;2.60;;
6590;SDS011;3331;47.978;7.662;2022-10-26T22:20:59;4.37;;;2.33;;
6590;SDS011;3331;47.978;7.662;2022-10-26T22:23:25;3.67;;;2.40;;
6590;SDS011;3331;47.978;7.662;2022-10-26T22:25:52;7.80;;;2.30;;
6590;SDS011;3331;47.978;7.662;2022-10-26T22:28:19;12.20;;;2.93;;
6590;SDS011;3331;47.978;7.662;2022-10-26T22:30:46;7.27;;;3.00;;
6590;SDS011;3331;47.978;7.662;2022-10-26T22:33:12;5.13;;;2.57;;
6590;SDS011;3331;47.978;7.662;2022-10-26T22:35:39;6.33;;;3.20;;
6590;SDS011;3331;47.978;7.662;2022-10-26T22:38:05;4.30;;;2.33;;
6590;SDS011;3331;47.978;7.662;2022-10-26T22:40:31;5.53;;;2.97;;
6590;SDS011;3331;47.978;7.662;2022-10-26T22:42:58;7.37;;;3.23;;